createdAt,value
2018-12-29T00:01:46.153Z,43.70
2018-12-29T00:04:14.601Z,44.37
2018-12-29T00:06:43.027Z,47.10
2018-12-29T00:09:11.475Z,48.27
2018-12-29T00:11:39.900Z,43.30
2018-12-29T00:14:08.347Z,47.33
2018-12-29T00:16:36.771Z,41.20
2018-12-29T00:19:05.288Z,46.53
2018-12-29T00:21:33.806Z,48.77
2018-12-29T00:24:02.265Z,49.23
2018-12-29T00:26:30.689Z,46.67
2018-12-29T00:28:59.142Z,53.37
2018-12-29T00:31:27.562Z,44.43
2018-12-29T00:33:56.020Z,48.33
2018-12-29T00:36:24.441Z,52.20
2018-12-29T00:38:52.893Z,48.53
2018-12-29T00:41:21.315Z,44.17
2018-12-29T00:43:49.772Z,46.83
2018-12-29T00:46:18.203Z,47.80
2018-12-29T00:48:46.660Z,53.40
2018-12-29T00:51:15.079Z,48.80
2018-12-29T00:53:43.531Z,56.03
2018-12-29T00:56:11.956Z,43.80
2018-12-29T00:58:40.405Z,51.20
2018-12-29T01:01:08.898Z,49.30
2018-12-29T01:03:37.354Z,48.07
2018-12-29T01:06:05.782Z,49.10
2018-12-29T01:08:34.239Z,46.00
2018-12-29T01:11:02.667Z,58.23
2018-12-29T01:13:31.112Z,52.40
2018-12-29T01:15:59.540Z,55.90
2018-12-29T01:18:27.965Z,49.07
2018-12-29T01:20:56.426Z,49.80
2018-12-29T01:23:24.849Z,53.70
2018-12-29T01:25:53.307Z,61.67
2018-12-29T01:28:21.731Z,49.00
2018-12-29T01:30:50.173Z,46.53
2018-12-29T01:33:18.605Z,43.97
2018-12-29T01:35:47.055Z,41.87
2018-12-29T01:38:15.507Z,46.17
2018-12-29T01:40:43.943Z,45.40
2018-12-29T01:43:12.372Z,48.07
2018-12-29T01:45:40.816Z,48.17
2018-12-29T01:48:09.243Z,52.40
2018-12-29T01:50:37.693Z,50.73
2018-12-29T01:53:06.117Z,45.50
2018-12-29T01:55:34.567Z,44.90
2018-12-29T01:58:02.989Z,50.47
2018-12-29T02:00:31.442Z,46.57
2018-12-29T02:02:59.869Z,54.17
2018-12-29T02:05:28.319Z,55.70
2018-12-29T02:07:56.740Z,57.23
2018-12-29T02:10:25.257Z,50.57
2018-12-29T02:12:53.683Z,59.63
2018-12-29T02:15:24.789Z,56.80
2018-12-29T02:17:52.353Z,56.67
2018-12-29T02:20:20.827Z,50.10
2018-12-29T02:22:49.239Z,61.40
2018-12-29T02:25:17.686Z,52.07
2018-12-29T02:27:46.106Z,57.33
2018-12-29T02:30:14.561Z,55.23
2018-12-29T02:32:42.998Z,60.07
2018-12-29T02:35:11.446Z,58.40
2018-12-29T02:37:39.875Z,47.67
2018-12-29T02:40:08.396Z,56.50
2018-12-29T02:42:36.820Z,57.97
2018-12-29T02:45:05.644Z,49.10
2018-12-29T02:47:34.068Z,51.43
2018-12-29T02:50:02.594Z,51.40
2018-12-29T02:52:31.026Z,48.50
2018-12-29T02:54:59.473Z,48.10
2018-12-29T02:57:27.903Z,50.30
2018-12-29T02:59:56.326Z,51.77
2018-12-29T03:02:24.783Z,43.67
2018-12-29T03:04:53.205Z,47.27
2018-12-29T03:07:21.662Z,44.73
2018-12-29T03:09:50.082Z,52.90
2018-12-29T03:12:18.534Z,53.70
2018-12-29T03:14:46.966Z,51.17
2018-12-29T03:17:15.413Z,55.30
2018-12-29T03:19:43.835Z,55.37
2018-12-29T03:22:12.291Z,50.90
2018-12-29T03:24:40.714Z,47.10
2018-12-29T03:27:09.166Z,49.50
2018-12-29T03:29:37.585Z,56.17
2018-12-29T03:32:06.035Z,52.60
2018-12-29T03:34:34.457Z,51.67
2018-12-29T03:37:02.911Z,52.20
2018-12-29T03:39:31.336Z,54.90
2018-12-29T03:41:59.788Z,54.63
2018-12-29T03:44:28.228Z,51.37
2018-12-29T03:46:56.680Z,53.87
2018-12-29T03:49:25.120Z,53.00
2018-12-29T03:51:53.584Z,62.00
2018-12-29T03:54:22.007Z,52.23
2018-12-29T03:56:50.466Z,49.23
2018-12-29T03:59:18.885Z,46.37
2018-12-29T04:01:47.336Z,54.03
2018-12-29T04:04:15.759Z,54.37
2018-12-29T04:06:44.221Z,51.70
2018-12-29T04:09:35.470Z,50.50
2018-12-29T04:12:07.363Z,49.50
2018-12-29T04:14:36.933Z,57.30
2018-12-29T04:17:05.403Z,47.00
2018-12-29T04:19:33.813Z,48.10
2018-12-29T04:22:02.335Z,62.97
2018-12-29T04:24:30.761Z,50.20
2018-12-29T04:26:59.214Z,57.10
2018-12-29T04:29:27.717Z,54.40
2018-12-29T04:31:56.237Z,61.80
2018-12-29T04:34:24.664Z,58.43
2018-12-29T04:36:53.116Z,47.00
2018-12-29T04:39:21.548Z,52.60
2018-12-29T04:41:49.996Z,59.53
2018-12-29T04:44:18.424Z,51.83
2018-12-29T04:46:46.877Z,56.83
2018-12-29T04:49:15.307Z,46.40
2018-12-29T04:51:43.759Z,52.53
2018-12-29T04:54:12.261Z,59.37
2018-12-29T04:56:40.722Z,57.23
2018-12-29T04:59:09.141Z,57.23
2018-12-29T05:01:37.636Z,52.80
2018-12-29T05:04:06.088Z,53.43
2018-12-29T05:06:34.519Z,52.20
2018-12-29T05:09:02.973Z,53.93
2018-12-29T05:11:31.399Z,49.33
2018-12-29T05:13:59.850Z,47.80
2018-12-29T05:16:28.279Z,57.07
2018-12-29T05:18:56.728Z,47.80
2018-12-29T05:21:25.155Z,45.30
2018-12-29T05:23:53.606Z,47.37
2018-12-29T05:26:22.032Z,43.27
2018-12-29T05:28:50.483Z,46.23
2018-12-29T05:31:18.909Z,38.93
2018-12-29T05:33:47.368Z,41.70
2018-12-29T05:36:15.787Z,45.13
2018-12-29T05:38:44.237Z,42.87
2018-12-29T05:41:12.663Z,42.27
2018-12-29T05:43:41.121Z,41.00
2018-12-29T05:46:09.551Z,41.13
2018-12-29T05:48:38.003Z,34.67
2018-12-29T05:51:06.428Z,38.43
2018-12-29T05:53:34.876Z,41.23
2018-12-29T05:56:03.324Z,38.00
2018-12-29T05:58:31.753Z,44.17
2018-12-29T06:01:00.185Z,31.93
2018-12-29T06:03:28.703Z,30.60
2018-12-29T06:05:57.138Z,34.97
2018-12-29T06:08:25.584Z,32.07
2018-12-29T06:10:54.007Z,31.17
2018-12-29T06:13:22.452Z,33.03
2018-12-29T06:15:50.878Z,32.23
2018-12-29T06:18:19.333Z,33.00
2018-12-29T06:20:47.751Z,33.23
2018-12-29T06:23:16.197Z,30.90
2018-12-29T06:25:44.619Z,33.10
2018-12-29T06:28:13.068Z,34.60
2018-12-29T06:30:41.501Z,38.07
2018-12-29T06:33:09.943Z,33.03
2018-12-29T06:35:38.361Z,36.20
2018-12-29T06:38:06.809Z,34.80
2018-12-29T06:40:35.240Z,38.63
2018-12-29T06:43:03.703Z,36.13
2018-12-29T06:45:32.128Z,39.40
2018-12-29T06:48:00.559Z,33.63
2018-12-29T06:50:29.007Z,35.37
2018-12-29T06:52:57.433Z,40.33
2018-12-29T06:55:25.880Z,32.83
2018-12-29T06:57:54.302Z,36.07
2018-12-29T07:00:22.750Z,35.10
2018-12-29T07:02:51.178Z,63.03
2018-12-29T07:05:19.632Z,40.87
2018-12-29T07:07:48.061Z,52.73
2018-12-29T07:10:16.503Z,44.53
2018-12-29T07:12:44.932Z,31.60
2018-12-29T07:15:13.386Z,30.93
2018-12-29T07:17:41.806Z,29.67
2018-12-29T07:20:10.256Z,30.80
2018-12-29T07:22:38.689Z,25.50
2018-12-29T07:25:07.213Z,31.50
2018-12-29T07:27:35.637Z,28.87
2018-12-29T07:30:04.827Z,30.17
2018-12-29T07:32:33.271Z,24.30
2018-12-29T07:35:01.727Z,25.47
2018-12-29T07:37:30.149Z,30.33
2018-12-29T07:39:58.597Z,25.83
2018-12-29T07:42:27.016Z,34.70
2018-12-29T07:44:55.467Z,26.53
2018-12-29T07:47:23.902Z,29.37
2018-12-29T07:49:52.357Z,23.93
2018-12-29T07:52:20.784Z,26.57
2018-12-29T07:54:49.205Z,27.10
2018-12-29T07:57:17.670Z,27.83
2018-12-29T07:59:46.082Z,31.13
2018-12-29T08:02:14.536Z,30.40
2018-12-29T08:04:42.960Z,27.50
2018-12-29T08:07:11.413Z,27.77
2018-12-29T08:09:39.836Z,25.97
2018-12-29T08:12:08.298Z,25.37
2018-12-29T08:14:36.793Z,28.27
2018-12-29T08:17:05.240Z,25.33
2018-12-29T08:19:33.666Z,29.03
2018-12-29T08:22:02.112Z,26.93
2018-12-29T08:24:30.541Z,25.23
2018-12-29T08:26:58.987Z,26.50
2018-12-29T08:29:27.417Z,25.43
2018-12-29T08:31:55.861Z,26.57
2018-12-29T08:34:24.295Z,25.50
2018-12-29T08:36:52.737Z,21.90
2018-12-29T08:39:21.162Z,25.20
2018-12-29T08:41:49.616Z,24.53
2018-12-29T08:44:18.038Z,25.83
2018-12-29T08:46:46.493Z,29.10
2018-12-29T08:49:14.906Z,29.70
2018-12-29T08:51:43.365Z,31.10
2018-12-29T08:54:11.789Z,34.03
2018-12-29T08:56:40.252Z,40.93
2018-12-29T08:59:08.680Z,43.83
2018-12-29T09:01:37.103Z,75.73
2018-12-29T09:04:05.571Z,39.27
2018-12-29T09:06:33.987Z,35.80
2018-12-29T09:09:02.437Z,35.20
2018-12-29T09:11:30.859Z,30.73
2018-12-29T09:13:59.387Z,39.13
2018-12-29T09:16:27.803Z,36.10
2018-12-29T09:18:56.254Z,32.00
2018-12-29T09:21:24.680Z,30.80
2018-12-29T09:23:53.128Z,29.23
2018-12-29T09:26:21.551Z,31.80
2018-12-29T09:28:50.000Z,30.30
2018-12-29T09:31:18.420Z,33.70
2018-12-29T09:33:46.878Z,33.37
2018-12-29T09:36:15.375Z,33.03
2018-12-29T09:38:43.890Z,31.83
2018-12-29T09:41:12.329Z,28.73
2018-12-29T09:43:40.776Z,29.30
2018-12-29T09:46:09.198Z,31.03
2018-12-29T09:48:37.647Z,33.13
2018-12-29T09:51:06.076Z,33.83
2018-12-29T09:53:34.528Z,28.57
2018-12-29T09:56:02.949Z,30.73
2018-12-29T09:58:31.397Z,30.77
2018-12-29T10:00:59.814Z,31.93
2018-12-29T10:03:28.232Z,29.20
2018-12-29T10:05:56.689Z,33.37
2018-12-29T10:08:25.112Z,34.43
2018-12-29T10:10:53.561Z,30.10
2018-12-29T10:13:21.989Z,33.63
2018-12-29T10:15:50.443Z,32.03
2018-12-29T10:18:18.875Z,35.97
2018-12-29T10:20:47.329Z,31.93
2018-12-29T10:23:15.758Z,31.80
2018-12-29T10:25:44.206Z,31.77
2018-12-29T10:28:12.835Z,78.03
2018-12-29T10:30:41.363Z,171.17
2018-12-29T10:33:09.794Z,37.80
2018-12-29T10:35:38.243Z,35.23
2018-12-29T10:38:06.683Z,31.37
2018-12-29T10:40:35.135Z,33.47
2018-12-29T10:43:03.559Z,32.30
2018-12-29T10:45:32.010Z,36.37
2018-12-29T10:48:00.437Z,33.97
2018-12-29T10:50:29.153Z,29.03
2018-12-29T10:52:57.890Z,31.23
2018-12-29T10:55:26.410Z,30.77
2018-12-29T10:57:55.002Z,30.90
2018-12-29T11:00:23.623Z,28.00
2018-12-29T11:02:52.190Z,30.10
2018-12-29T11:05:20.903Z,34.43
2018-12-29T11:07:49.434Z,32.77
2018-12-29T11:10:18.101Z,29.67
2018-12-29T11:12:46.695Z,33.50
2018-12-29T11:15:16.557Z,29.67
2018-12-29T11:17:45.353Z,33.80
2018-12-29T11:20:13.848Z,35.47
2018-12-29T11:22:42.368Z,29.30
2018-12-29T11:25:10.858Z,27.90
2018-12-29T11:27:39.543Z,30.20
2018-12-29T11:30:08.343Z,31.20
2018-12-29T11:32:38.308Z,31.27
2018-12-29T11:35:06.959Z,31.80
2018-12-29T11:37:35.406Z,29.10
2018-12-29T11:40:04.630Z,32.23
2018-12-29T11:42:33.082Z,28.10
2018-12-29T11:45:01.507Z,29.93
2018-12-29T11:47:29.954Z,27.90
2018-12-29T11:49:58.372Z,30.10
2018-12-29T11:52:26.820Z,26.67
2018-12-29T11:54:55.240Z,28.73
2018-12-29T11:57:23.688Z,29.50
2018-12-29T11:59:52.114Z,29.73
2018-12-29T12:02:24.431Z,30.57
2018-12-29T12:04:50.714Z,28.60
2018-12-29T12:07:19.164Z,30.97
2018-12-29T12:09:47.587Z,26.70
2018-12-29T12:12:16.050Z,28.90
2018-12-29T12:14:44.489Z,30.07
2018-12-29T12:17:12.946Z,26.30
2018-12-29T12:19:41.367Z,28.63
2018-12-29T12:22:09.832Z,31.17
2018-12-29T12:24:38.307Z,27.70
2018-12-29T12:27:06.722Z,26.63
2018-12-29T12:29:35.647Z,29.93
2018-12-29T12:32:04.336Z,25.50
2018-12-29T12:34:32.863Z,29.87
2018-12-29T12:37:01.293Z,31.30
2018-12-29T12:39:29.758Z,28.30
2018-12-29T12:41:58.181Z,27.23
2018-12-29T12:44:26.627Z,29.97
2018-12-29T12:46:55.052Z,26.60
2018-12-29T12:49:23.975Z,27.10
2018-12-29T12:51:52.400Z,25.93
2018-12-29T12:54:20.863Z,37.57
2018-12-29T12:56:49.276Z,36.30
2018-12-29T12:59:18.707Z,61.97
2018-12-29T13:01:47.403Z,30.17
2018-12-29T13:04:15.852Z,33.17
2018-12-29T13:06:44.279Z,40.80
2018-12-29T13:09:13.008Z,32.30
2018-12-29T13:11:41.436Z,30.57
2018-12-29T13:14:09.964Z,27.07
2018-12-29T13:16:38.382Z,26.80
2018-12-29T13:19:06.838Z,27.87
2018-12-29T13:21:35.430Z,29.13
2018-12-29T13:24:03.956Z,28.83
2018-12-29T13:26:32.385Z,27.03
2018-12-29T13:29:00.842Z,28.13
2018-12-29T13:31:29.264Z,25.73
2018-12-29T13:33:58.199Z,26.47
2018-12-29T13:36:26.622Z,23.63
2018-12-29T13:38:55.067Z,27.60
2018-12-29T13:41:23.490Z,27.07
2018-12-29T13:43:51.955Z,27.50
2018-12-29T13:46:20.756Z,27.63
2018-12-29T13:48:49.212Z,28.03
2018-12-29T13:51:17.633Z,26.40
2018-12-29T13:53:46.932Z,29.97
2018-12-29T13:56:15.391Z,32.50
2018-12-29T13:58:44.087Z,27.00
2018-12-29T14:01:12.533Z,33.87
2018-12-29T14:03:40.956Z,33.40
2018-12-29T14:06:09.409Z,33.87
2018-12-29T14:08:37.837Z,30.10
2018-12-29T14:11:06.286Z,30.37
2018-12-29T14:13:34.708Z,31.00
2018-12-29T14:16:03.156Z,33.10
2018-12-29T14:18:31.586Z,32.07
2018-12-29T14:21:00.033Z,30.97
2018-12-29T14:23:28.456Z,31.27
2018-12-29T14:25:56.912Z,32.60
2018-12-29T14:28:25.336Z,36.60
2018-12-29T14:30:53.779Z,28.87
2018-12-29T14:33:22.210Z,33.17
2018-12-29T14:35:50.660Z,40.33
2018-12-29T14:38:19.091Z,33.47
2018-12-29T14:40:47.538Z,35.03
2018-12-29T14:43:15.958Z,34.90
2018-12-29T14:45:44.417Z,36.87
2018-12-29T14:48:12.844Z,40.83
2018-12-29T14:50:41.294Z,34.03
2018-12-29T14:53:09.721Z,36.90
2018-12-29T14:55:38.169Z,32.77
2018-12-29T14:58:06.594Z,33.93
2018-12-29T15:00:35.049Z,32.57
2018-12-29T15:03:03.479Z,31.93
2018-12-29T15:05:31.934Z,99.33
2018-12-29T15:08:00.361Z,56.37
2018-12-29T15:10:29.555Z,68.07
2018-12-29T15:12:58.085Z,53.27
2018-12-29T15:15:26.555Z,38.07
2018-12-29T15:17:54.969Z,41.23
2018-12-29T15:20:23.707Z,36.77
2018-12-29T15:22:52.347Z,36.63
2018-12-29T15:25:20.822Z,39.43
2018-12-29T15:27:49.652Z,43.20
2018-12-29T15:30:18.078Z,38.10
2018-12-29T15:32:46.524Z,36.43
2018-12-29T15:35:14.945Z,32.20
2018-12-29T15:37:43.403Z,36.83
2018-12-29T15:40:11.828Z,36.40
2018-12-29T15:42:44.978Z,36.47
2018-12-29T15:45:10.424Z,33.10
2018-12-29T15:47:38.878Z,33.80
2018-12-29T15:50:07.378Z,31.30
2018-12-29T15:52:35.835Z,37.20
2018-12-29T15:55:05.199Z,33.80
2018-12-29T15:57:33.661Z,34.70
2018-12-29T16:00:02.092Z,35.43
2018-12-29T16:02:30.539Z,34.17
2018-12-29T16:04:59.343Z,35.20
2018-12-29T16:07:27.799Z,35.57
2018-12-29T16:09:56.419Z,39.30
2018-12-29T16:12:24.888Z,36.50
2018-12-29T16:14:53.323Z,34.77
2018-12-29T16:17:21.772Z,37.97
2018-12-29T16:19:50.571Z,38.37
2018-12-29T16:22:19.038Z,38.93
2018-12-29T16:24:48.709Z,38.47
2018-12-29T16:27:17.439Z,37.87
2018-12-29T16:29:45.860Z,40.17
2018-12-29T16:32:14.288Z,44.10
2018-12-29T16:34:42.745Z,38.23
2018-12-29T16:37:11.164Z,38.17
2018-12-29T16:39:39.895Z,44.83
2018-12-29T16:42:08.313Z,40.33
2018-12-29T16:44:36.837Z,40.17
2018-12-29T16:47:05.265Z,42.70
2018-12-29T16:49:34.273Z,38.23
2018-12-29T16:52:02.780Z,40.60
2018-12-29T16:54:31.239Z,45.40
2018-12-29T16:56:59.747Z,43.23
2018-12-29T16:59:28.667Z,40.00
2018-12-29T17:01:57.664Z,36.73
2018-12-29T17:04:26.108Z,45.40
2018-12-29T17:06:54.530Z,43.10
2018-12-29T17:09:23.258Z,39.73
2018-12-29T17:11:52.583Z,38.07
2018-12-29T17:14:21.319Z,39.37
2018-12-29T17:16:49.746Z,40.43
2018-12-29T17:19:18.194Z,34.73
2018-12-29T17:21:46.614Z,37.67
2018-12-29T17:24:15.067Z,33.13
2018-12-29T17:26:43.492Z,30.50
2018-12-29T17:29:11.948Z,28.10
2018-12-29T17:31:40.369Z,27.30
2018-12-29T17:34:09.199Z,27.07
2018-12-29T17:36:41.861Z,24.70
2018-12-29T17:39:07.837Z,25.97
2018-12-29T17:41:36.301Z,28.47
2018-12-29T17:44:04.715Z,26.47
2018-12-29T17:46:33.543Z,23.37
2018-12-29T17:49:02.211Z,23.53
2018-12-29T17:51:30.677Z,28.50
2018-12-29T17:53:59.104Z,24.63
2018-12-29T17:56:27.943Z,23.90
2018-12-29T17:58:56.368Z,22.90
2018-12-29T18:01:24.813Z,21.93
2018-12-29T18:03:53.241Z,21.63
2018-12-29T18:06:21.690Z,25.30
2018-12-29T18:08:50.113Z,24.73
2018-12-29T18:11:18.572Z,26.80
2018-12-29T18:13:46.993Z,23.63
2018-12-29T18:16:15.720Z,25.07
2018-12-29T18:18:44.139Z,23.10
2018-12-29T18:21:12.595Z,22.57
2018-12-29T18:23:41.025Z,22.97
2018-12-29T18:26:09.478Z,24.20
2018-12-29T18:28:37.915Z,26.33
2018-12-29T18:31:06.432Z,24.83
2018-12-29T18:33:37.377Z,25.50
2018-12-29T18:36:05.028Z,21.07
2018-12-29T18:38:33.463Z,27.20
2018-12-29T18:41:01.913Z,21.87
2018-12-29T18:43:30.355Z,24.30
2018-12-29T18:45:58.790Z,28.70
2018-12-29T18:48:27.224Z,26.97
2018-12-29T18:50:56.146Z,26.90
2018-12-29T18:53:24.568Z,22.97
2018-12-29T18:55:53.059Z,26.10
2018-12-29T18:58:21.485Z,25.63
2018-12-29T19:00:49.910Z,24.50
2018-12-29T19:03:18.637Z,24.73
2018-12-29T19:05:47.062Z,26.70
2018-12-29T19:08:15.514Z,27.83
2018-12-29T19:10:43.937Z,27.33
2018-12-29T19:13:12.725Z,25.80
2018-12-29T19:15:41.365Z,24.67
2018-12-29T19:18:09.820Z,26.47
2018-12-29T19:20:38.427Z,29.10
2018-12-29T19:23:07.271Z,25.47
2018-12-29T19:25:35.699Z,25.50
2018-12-29T19:28:04.332Z,23.30
2018-12-29T19:30:33.233Z,24.03
2018-12-29T19:33:01.956Z,28.13
2018-12-29T19:35:30.386Z,24.00
2018-12-29T19:37:58.843Z,27.40
2018-12-29T19:40:27.266Z,22.33
2018-12-29T19:42:56.093Z,22.00
2018-12-29T19:45:24.513Z,25.90
2018-12-29T19:47:53.348Z,22.83
2018-12-29T19:50:22.149Z,24.73
2018-12-29T19:52:50.601Z,21.10
2018-12-29T19:55:19.023Z,23.90
2018-12-29T19:57:47.480Z,20.30
2018-12-29T20:00:15.978Z,19.73
2018-12-29T20:02:44.714Z,23.07
2018-12-29T20:05:13.611Z,20.20
2018-12-29T20:07:42.072Z,20.33
2018-12-29T20:10:10.572Z,21.00
2018-12-29T20:12:38.999Z,19.33
2018-12-29T20:15:07.451Z,18.83
2018-12-29T20:17:36.254Z,15.70
2018-12-29T20:20:05.844Z,16.50
2018-12-29T20:22:34.270Z,18.77
2018-12-29T20:25:02.716Z,15.90
2018-12-29T20:27:31.140Z,16.43
2018-12-29T20:29:59.869Z,17.90
2018-12-29T20:32:28.289Z,13.80
2018-12-29T20:34:56.735Z,14.27
2018-12-29T20:37:25.158Z,14.13
2018-12-29T20:39:53.601Z,12.73
2018-12-29T20:42:22.022Z,14.13
2018-12-29T20:44:50.470Z,13.93
2018-12-29T20:47:18.912Z,10.50
2018-12-29T20:49:47.361Z,13.13
2018-12-29T20:52:15.778Z,12.63
2018-12-29T20:54:44.229Z,11.47
2018-12-29T20:57:13.092Z,12.27
2018-12-29T20:59:41.535Z,12.57
2018-12-29T21:02:09.956Z,12.90
2018-12-29T21:04:38.397Z,15.10
2018-12-29T21:07:06.818Z,12.47
2018-12-29T21:09:35.268Z,12.77
2018-12-29T21:12:03.684Z,14.13
2018-12-29T21:14:32.131Z,11.47
2018-12-29T21:17:00.550Z,11.53
2018-12-29T21:19:28.998Z,11.63
2018-12-29T21:21:57.415Z,11.03
2018-12-29T21:24:25.839Z,13.30
2018-12-29T21:26:54.288Z,10.37
2018-12-29T21:29:22.715Z,10.80
2018-12-29T21:31:51.168Z,8.90
2018-12-29T21:34:19.604Z,7.70
2018-12-29T21:36:48.101Z,8.80
2018-12-29T21:39:16.899Z,9.23
2018-12-29T21:41:45.386Z,8.70
2018-12-29T21:44:13.845Z,8.30
2018-12-29T21:46:42.282Z,8.53
2018-12-29T21:49:10.706Z,7.53
2018-12-29T21:51:39.153Z,5.40
2018-12-29T21:54:07.585Z,5.63
2018-12-29T21:56:36.024Z,5.13
2018-12-29T21:59:04.508Z,3.77
2018-12-29T22:01:32.950Z,2.83
2018-12-29T22:04:01.368Z,4.00
2018-12-29T22:06:30.184Z,4.57
2018-12-29T22:08:58.603Z,2.73
2018-12-29T22:11:27.046Z,3.20
2018-12-29T22:13:55.462Z,2.50
2018-12-29T22:16:23.906Z,2.87
2018-12-29T22:18:52.323Z,3.93
2018-12-29T22:21:21.033Z,2.70
2018-12-29T22:23:49.442Z,3.30
2018-12-29T22:26:17.883Z,2.80
2018-12-29T22:28:46.307Z,1.90
2018-12-29T22:31:14.715Z,2.23
2018-12-29T22:33:43.162Z,3.63
2018-12-29T22:36:11.579Z,2.83
2018-12-29T22:38:40.025Z,2.10
2018-12-29T22:41:08.440Z,2.20
2018-12-29T22:43:36.879Z,3.00
2018-12-29T22:46:05.299Z,2.47
2018-12-29T22:48:34.119Z,1.27
2018-12-29T22:51:02.531Z,3.10
2018-12-29T22:53:30.977Z,1.70
2018-12-29T22:55:59.394Z,2.37
2018-12-29T22:58:27.836Z,3.87
2018-12-29T23:00:56.490Z,1.87
2018-12-29T23:03:24.938Z,2.00
2018-12-29T23:05:53.422Z,1.37
2018-12-29T23:08:21.864Z,1.70
2018-12-29T23:10:50.283Z,1.87
2018-12-29T23:13:18.727Z,1.60
2018-12-29T23:15:47.143Z,1.53
2018-12-29T23:18:15.585Z,1.70
2018-12-29T23:20:48.989Z,1.60
2018-12-29T23:23:14.446Z,1.60
2018-12-29T23:25:42.867Z,1.57
2018-12-29T23:28:11.311Z,1.90
2018-12-29T23:30:39.725Z,2.10
2018-12-29T23:33:08.165Z,1.90
2018-12-29T23:35:36.605Z,2.00
2018-12-29T23:38:05.502Z,2.00
2018-12-29T23:40:33.914Z,2.10
2018-12-29T23:43:02.360Z,2.60
2018-12-29T23:45:31.147Z,2.30
2018-12-29T23:47:59.595Z,2.67
2018-12-29T23:50:28.074Z,3.10
2018-12-29T23:52:56.894Z,5.23
2018-12-29T23:55:25.688Z,2.80
2018-12-29T23:57:54.111Z,2.90
